Varrelbusch Airport

EDWU · Niedersachsen, Deutschland

METAR-Geschichte EDWU · Varrelbusch Airport

Unten siehst du die METARs der letzten paar Tage. Wähle ein Jahr, um ältere METARs ab dem Jahr 2007 zu durchsuchen.

30. November 2022

Uhrzeit Code Wetter Temp. Sichtweite Wolkendecke Wind METAR/SPECI
00:20
U
6 °C 0 m - 340° 340° 3 kt METAR ETWM 292320Z AUTO 34003KT //// // ////// 06/06 Q1021 ///

29. November 2022

Uhrzeit Code Wetter Temp. Sichtweite Wolkendecke Wind METAR/SPECI
23:20
U
6 °C 0 m - 340° 340° 3 kt METAR ETWM 292220Z AUTO 34003KT //// // ////// 06/06 Q1021 ///
22:20
U
6 °C 0 m - 320° 320° 2 kt METAR ETWM 292120Z AUTO 32002KT //// // ////// 06/06 Q1021 ///
21:20
U
6 °C 0 m - 320° 320° 3 kt METAR ETWM 292020Z AUTO 32003KT //// // ////// 06/06 Q1020 ///
20:20
U
6 °C 0 m - 340° 340° 5 kt METAR ETWM 291920Z AUTO 34005KT //// // ////// 06/06 Q1020 ///
19:20
U
7 °C 0 m - 340° 340° 3 kt METAR ETWM 291820Z AUTO 34003KT //// // ////// 07/06 Q1020 ///
18:20
U
7 °C 0 m - 350° 350° 5 kt METAR ETWM 291720Z AUTO 35005KT //// // ////// 07/06 Q1019 ///
17:20
U
8 °C 0 m - 320° 320° 3 kt METAR ETWM 291620Z AUTO 32003KT //// // ////// 08/07 Q1019 ///
16:20
U
8 °C 0 m - 300° 300° 2 kt METAR ETWM 291520Z AUTO 30002KT //// // ////// 08/08 Q1018 ///
15:20
U
8 °C 0 m - Var Var 3 kt METAR ETWM 291420Z AUTO VRB03KT //// // ////// 08/08 Q1018 ///
14:20
L
8 °C 3,8 km 200 ft 260° 260° 4 kt METAR ETWM 291320Z 26004KT 3800 BR BKN002 08/08 Q1018 AMB
13:20
L
8 °C 3,6 km 300 ft 260° 260° 3 kt METAR ETWM 291220Z 26003KT 3600 BR SCT002 BKN003 08/08 Q1017 YLO
12:54
L
8 °C 2,4 km 200 ft 240° 240° 5 kt METAR ETWM 291154Z 24005KT 2400 BR BKN002 BKN004 08/08 Q1017 AMB
12:20
L
8 °C 1,8 km 100 ft 250° 250° 5 kt METAR ETWM 291120Z 25005KT 1800 BR BKN001 08/08 Q1017 RED
11:20
L
7 °C 1,1 km 100 ft 250° 250° 5 kt METAR ETWM 291020Z 25005KT 1100 -RADZ BR SCT000 OVC001 07/07 Q1017 RED
10:20
L
7 °C 1,1 km - 240° 240° 4 kt METAR ETWM 290920Z 24004KT 1100 BR OVC000 07/07 Q1017 RED
09:20
L
7 °C 500 m - 260° 260° 4 kt METAR ETWM 290820Z 26004KT 0500 -DZ FG OVC000 07/07 Q1016 RED
08:20
L
7 °C 400 m - 260° 260° 4 kt METAR ETWM 290720Z 26004KT 0400 -RADZ FG OVC000 07/07 Q1016 RED
07:20
L
7 °C 900 m - 270° 270° 5 kt METAR ETWM 290620Z 27005KT 0900 FG OVC000 07/07 Q1015 RED
06:20
L
8 °C 900 m - Var Var 1 kt METAR ETWM 290520Z VRB01KT 0900 FG BKN000 08/08 Q1015 RED
05:20
U
8 °C 0 m - Var Var 2 kt METAR ETWM 290420Z AUTO VRB02KT //// // ////// 08/08 Q1015 ///
04:20
U
8 °C 0 m - Var Var 2 kt METAR ETWM 290320Z AUTO VRB02KT //// // ////// 08/07 Q1014 ///
03:20
U
8 °C 0 m - Var Var 1 kt METAR ETWM 290220Z AUTO VRB01KT //// // ////// 08/07 Q1014 ///
02:20
U
7 °C 0 m - 210° 210° 1 kt METAR ETWM 290120Z AUTO 21001KT //// // ////// 07/07 Q1013 ///
01:20
U
7 °C 0 m - Var Var 1 kt METAR ETWM 290020Z AUTO VRB01KT //// // ////// 07/07 Q1013 ///
00:20
U
7 °C 0 m - 180° 180° 1 kt METAR ETWM 282320Z AUTO 18001KT //// // ////// 07/07 Q1013 ///

28. November 2022

Uhrzeit Code Wetter Temp. Sichtweite Wolkendecke Wind METAR/SPECI
23:20
U
7 °C 0 m - Var Var 1 kt METAR ETWM 282220Z AUTO VRB01KT //// // ////// 07/07 Q1013 ///
22:20
U
7 °C 0 m - Var 000° 0 kt METAR ETWM 282120Z AUTO 00000KT //// // ////// 07/07 Q1013 ///
21:20
U
7 °C 0 m - 180° 180° 2 kt METAR ETWM 282020Z AUTO 18002KT //// // ////// 07/07 Q1012 ///
20:20
U
7 °C 0 m - Var Var 1 kt METAR ETWM 281920Z AUTO VRB01KT //// // ////// 07/07 Q1012 ///
19:20
U
7 °C 0 m - Var Var 1 kt METAR ETWM 281820Z AUTO VRB01KT //// // ////// 07/07 Q1012 ///
18:20
U
7 °C 0 m - Var Var 2 kt METAR ETWM 281720Z AUTO VRB02KT //// // ////// 07/07 Q1011 ///
17:20
U
7 °C 0 m - Var Var 2 kt METAR ETWM 281620Z AUTO VRB02KT //// // ////// 07/07 Q1011 ///
16:20
L
7 °C 2,5 km 200 ft Var Var 3 kt METAR ETWM 281520Z VRB03KT 2500 -DZRA BR FEW001 BKN002 07/07 Q1011 REDZ AMB
15:20
L
7 °C 2,7 km 200 ft Var Var 2 kt METAR ETWM 281420Z VRB02KT 2700 DZRA BKN002 07/07 Q1010 AMB
14:20
L
7 °C 3,1 km 200 ft 160° 160° 4 kt METAR ETWM 281320Z 16004KT 3100 DZRA FEW001 BKN002 07/07 Q1010 AMB
13:20
L
7 °C 2,7 km 200 ft Var Var 3 kt METAR ETWM 281220Z VRB03KT 2700 DZRA FEW001 BKN002 BKN006 07/07 Q1010 AMB
12:50
I
7 °C 3,4 km 600 ft 160° 160° 3 kt METAR ETWM 281150Z 16003KT 3400 DZRA BKN006 BKN008 07/07 Q1010 YLO
12:20
I
7 °C 5 km 800 ft 170° 170° 4 kt METAR ETWM 281120Z 17004KT 5000 -DZRA FEW004 SCT006 BKN008 07/06 Q1010 GRN
11:20
I
7 °C 6 km 700 ft 160° 160° 4 kt METAR ETWM 281020Z 16004KT 6000 -RADZ FEW004 BKN007 BKN010 07/06 Q1010 GRN
10:20
M
7 °C 6 km 1.000 ft 160° 160° 6 kt METAR ETWM 280920Z 16006KT 6000 -RADZ FEW005 SCT007 BKN010 07/06 Q1010 GRN
09:20
I
7 °C 6 km 700 ft 160° 160° 4 kt METAR ETWM 280820Z 16004KT 6000 -RADZ FEW004 BKN007 BKN010 07/06 Q1010 GRN
08:20
I
7 °C 7 km 800 ft 160° 160° 4 kt METAR ETWM 280720Z 16004KT 7000 -RADZ FEW006 BKN008 BKN011 07/06 Q1009 GRN
07:20
I
7 °C 10 km+ 900 ft 170° 170° 6 kt METAR ETWM 280620Z 17006KT 9999 -RA BKN009 07/06 Q1009 GRN
06:20
M
7 °C 10 km+ 1.200 ft 160° 160° 7 kt METAR ETWM 280520Z 16007KT 9999 -RA BKN012 07/06 Q1009 GRN
05:20
U
7 °C 0 m - 160° 160° 5 kt METAR ETWM 280420Z AUTO 16005KT //// // ////// 07/05 Q1009 ///
04:20
U
7 °C 0 m - 160° 160° 5 kt METAR ETWM 280320Z AUTO 16005KT //// // ////// 07/05 Q1009 ///
03:20
U
6 °C 0 m - 150° 150° 4 kt METAR ETWM 280220Z AUTO 15004KT //// // ////// 06/05 Q1009 ///
02:20
U
6 °C 0 m - 120° 120° 5 kt METAR ETWM 280120Z AUTO 12005KT //// // ////// 06/05 Q1010 ///
01:20
U
6 °C 0 m - 140° 140° 4 kt METAR ETWM 280020Z AUTO 14004KT //// // ////// 06/05 Q1011 ///
00:20
U
6 °C 0 m - 110° 110° 4 kt METAR ETWM 272320Z AUTO 11004KT //// // ////// 06/05 Q1011 ///

27. November 2022

Uhrzeit Code Wetter Temp. Sichtweite Wolkendecke Wind METAR/SPECI
23:20
U
6 °C 0 m - 130° 130° 5 kt METAR ETWM 272220Z AUTO 13005KT //// // ////// 06/05 Q1012 ///
22:20
U
6 °C 0 m - 120° 120° 5 kt METAR ETWM 272120Z AUTO 12005KT //// // ////// 06/05 Q1013 ///
21:20
U
6 °C 0 m - 120° 120° 5 kt METAR ETWM 272020Z AUTO 12005KT //// // ////// 06/05 Q1014 ///
20:20
U
6 °C 0 m - 150° 150° 5 kt METAR ETWM 271920Z AUTO 15005KT //// // ////// 06/05 Q1014 ///
19:20
U
6 °C 0 m - 120° 120° 6 kt METAR ETWM 271820Z AUTO 12006KT //// // ////// 06/05 Q1015 ///
18:20
U
6 °C 0 m - 120° 120° 6 kt METAR ETWM 271720Z AUTO 12006KT //// // ////// 06/05 Q1015 ///
17:20
U
6 °C 0 m - 120° 120° 5 kt METAR ETWM 271620Z AUTO 12005KT //// // ////// 06/04 Q1016 ///
16:20
U
6 °C 0 m - 120° 120° 4 kt METAR ETWM 271520Z AUTO 12004KT //// // ////// 06/04 Q1017 ///
15:20
U
6 °C 0 m - 110° 110° 4 kt METAR ETWM 271420Z AUTO 11004KT //// // ////// 06/05 Q1018 ///
14:20
U
6 °C 0 m - 140° 140° 4 kt METAR ETWM 271320Z AUTO 14004KT //// // ////// 06/04 Q1019 ///
13:20
U
5 °C 0 m - 120° 120° 4 kt METAR ETWM 271220Z AUTO 12004KT //// // ////// 05/04 Q1019 ///
12:20
U
5 °C 0 m - Var Var 2 kt METAR ETWM 271120Z AUTO VRB02KT //// // ////// 05/04 Q1020 ///
11:20
U
6 °C 0 m - 170° 170° 4 kt METAR ETWM 271020Z AUTO 17004KT //// // ////// 06/02 Q1021 ///

Wir und Dritte verfolgen dein Internetverhalten auf unserer Website mit Cookies. Wenn du fortfährst, gehen wir davon aus, dass du mit unserer Cookie-Richtlinie einverstanden bist.